createdAt,value
2019-05-11T00:00:07.764Z,79.35
2019-05-11T00:02:38.471Z,79.63
2019-05-11T00:05:10.126Z,79.17
2019-05-11T00:07:42.494Z,79.31
2019-05-11T00:10:14.079Z,78.85
2019-05-11T00:12:45.650Z,78.25
2019-05-11T00:15:19.749Z,77.90
2019-05-11T00:17:52.364Z,77.93
2019-05-11T00:20:23.859Z,78.03
2019-05-11T00:22:55.149Z,77.62
2019-05-11T00:25:28.149Z,77.69
2019-05-11T00:27:59.675Z,78.20
2019-05-11T00:30:31.148Z,78.77
2019-05-11T00:33:02.701Z,79.64
2019-05-11T00:35:34.132Z,80.05
2019-05-11T00:38:05.574Z,80.42
2019-05-11T00:40:37.090Z,80.41
2019-05-11T00:43:08.770Z,80.39
2019-05-11T00:45:40.222Z,80.27
2019-05-11T00:48:11.635Z,80.32
2019-05-11T00:50:43.073Z,80.03
2019-05-11T00:53:14.574Z,79.97
2019-05-11T00:55:45.950Z,80.30
2019-05-11T00:58:17.483Z,80.21
2019-05-11T01:00:48.946Z,80.29
2019-05-11T01:03:20.500Z,80.62
2019-05-11T01:05:51.991Z,81.29
2019-05-11T01:08:23.655Z,80.78
2019-05-11T01:10:55.505Z,80.85
2019-05-11T01:13:27.070Z,80.95
2019-05-11T01:15:58.483Z,80.94
2019-05-11T01:18:30.030Z,81.15
2019-05-11T01:21:02.523Z,81.58
2019-05-11T01:23:35.083Z,81.79
2019-05-11T01:26:08.363Z,81.91
2019-05-11T01:28:40.993Z,82.01
2019-05-11T01:31:12.829Z,82.34
2019-05-11T01:33:44.471Z,82.61
2019-05-11T01:36:16.287Z,82.58
2019-05-11T01:38:48.039Z,82.68
2019-05-11T01:41:19.505Z,82.95
2019-05-11T01:43:51.315Z,82.97
2019-05-11T01:46:23.037Z,83.37
2019-05-11T01:48:54.484Z,83.33
2019-05-11T01:51:26.176Z,83.60
2019-05-11T01:53:58.047Z,83.93
2019-05-11T01:56:29.486Z,84.08
2019-05-11T01:59:00.796Z,84.09
2019-05-11T02:01:34.453Z,84.24
2019-05-11T02:04:06.136Z,84.67
2019-05-11T02:06:37.766Z,84.86
2019-05-11T02:09:12.017Z,85.01
2019-05-11T02:11:43.828Z,85.07
2019-05-11T02:14:15.752Z,85.38
2019-05-11T02:16:47.245Z,85.80
2019-05-11T02:19:18.856Z,86.72
2019-05-11T02:21:52.702Z,86.84
2019-05-11T02:24:24.468Z,87.20
2019-05-11T02:27:00.095Z,87.60
2019-05-11T02:29:31.613Z,87.82
2019-05-11T02:32:03.062Z,88.23
2019-05-11T02:34:34.779Z,88.40
2019-05-11T02:37:06.421Z,88.56
2019-05-11T02:39:37.946Z,88.65
2019-05-11T02:42:09.475Z,88.67
2019-05-11T02:44:40.892Z,88.62
2019-05-11T02:47:12.454Z,89.02
2019-05-11T02:49:44.209Z,88.76
2019-05-11T02:52:17.091Z,88.59
2019-05-11T02:54:50.489Z,88.53
2019-05-11T02:57:21.944Z,87.98
2019-05-11T02:59:54.637Z,87.33
2019-05-11T03:02:26.002Z,86.83
2019-05-11T03:04:57.675Z,86.31
2019-05-11T03:07:29.050Z,86.28
2019-05-11T03:10:00.951Z,85.72
2019-05-11T03:12:32.643Z,85.21
2019-05-11T03:15:06.328Z,85.36
2019-05-11T03:17:37.612Z,83.75
2019-05-11T03:20:09.167Z,83.75
2019-05-11T03:22:41.024Z,82.61
2019-05-11T03:25:12.521Z,82.40
2019-05-11T03:27:45.453Z,82.42
2019-05-11T03:30:17.184Z,82.05
2019-05-11T03:32:48.862Z,81.33
2019-05-11T03:35:20.430Z,81.32
2019-05-11T03:37:52.140Z,80.80
2019-05-11T03:40:23.753Z,80.40
2019-05-11T03:42:56.031Z,80.36
2019-05-11T03:45:27.981Z,79.79
2019-05-11T03:47:59.533Z,78.62
2019-05-11T03:50:31.343Z,78.36
2019-05-11T03:53:02.735Z,78.90
2019-05-11T03:55:35.088Z,78.50
2019-05-11T03:58:06.751Z,77.93
2019-05-11T04:00:38.416Z,76.52
2019-05-11T04:03:10.094Z,76.94
2019-05-11T04:05:43.746Z,76.74
2019-05-11T04:08:15.236Z,75.48
2019-05-11T04:10:47.550Z,74.63
2019-05-11T04:13:19.123Z,74.76
2019-05-11T04:15:51.014Z,73.86
2019-05-11T04:18:22.639Z,74.10
2019-05-11T04:20:54.196Z,72.07
2019-05-11T04:23:25.783Z,72.07
2019-05-11T04:25:57.425Z,71.09
2019-05-11T04:28:30.736Z,69.12
2019-05-11T04:31:02.230Z,69.29
2019-05-11T04:33:35.485Z,68.49
2019-05-11T04:36:08.727Z,68.24
2019-05-11T04:38:41.816Z,68.37
2019-05-11T04:41:13.382Z,67.74
2019-05-11T04:43:47.128Z,67.18
2019-05-11T04:46:18.560Z,65.48
2019-05-11T04:48:49.961Z,65.95
2019-05-11T04:51:21.550Z,65.25
2019-05-11T04:53:53.018Z,64.76
2019-05-11T04:56:24.453Z,64.53
2019-05-11T04:58:57.829Z,64.71
2019-05-11T05:01:29.259Z,63.81
2019-05-11T05:04:13.226Z,63.92
2019-05-11T05:06:33.942Z,62.69
2019-05-11T05:09:08.327Z,61.60
2019-05-11T05:11:40.243Z,61.20
2019-05-11T05:14:12.147Z,62.55
2019-05-11T05:16:43.630Z,62.71
2019-05-11T05:19:15.106Z,62.22
2019-05-11T05:21:46.860Z,61.65
2019-05-11T05:24:21.913Z,60.78
2019-05-11T05:26:53.468Z,60.93
2019-05-11T05:29:26.443Z,61.02
2019-05-11T05:31:58.270Z,59.99
2019-05-11T05:34:29.920Z,58.65
2019-05-11T05:37:02.191Z,59.03
2019-05-11T05:39:33.706Z,58.78
2019-05-11T05:42:06.430Z,59.91
2019-05-11T05:44:38.125Z,60.23
2019-05-11T05:47:09.705Z,59.29
2019-05-11T05:49:41.484Z,60.08
2019-05-11T05:52:13.199Z,57.70
2019-05-11T05:54:45.991Z,59.98
2019-05-11T05:57:21.031Z,60.19
2019-05-11T05:59:52.567Z,59.50
2019-05-11T06:02:26.489Z,59.76
2019-05-11T06:04:58.893Z,59.09
2019-05-11T06:07:31.631Z,58.22
2019-05-11T06:10:04.428Z,57.94
2019-05-11T06:12:36.042Z,57.61
2019-05-11T06:15:08.558Z,58.26
2019-05-11T06:17:40.416Z,57.42
2019-05-11T06:20:13.899Z,59.07
2019-05-11T06:22:45.431Z,58.10
2019-05-11T06:25:17.066Z,57.89
2019-05-11T06:27:48.613Z,58.59
2019-05-11T06:30:23.159Z,56.15
2019-05-11T06:32:57.708Z,55.22
2019-05-11T06:35:33.378Z,55.22
2019-05-11T06:38:05.164Z,53.74
2019-05-11T06:40:37.578Z,53.54
2019-05-11T06:43:09.961Z,53.50
2019-05-11T06:45:42.541Z,53.28
2019-05-11T06:48:14.540Z,52.55
2019-05-11T06:50:46.424Z,50.32
2019-05-11T06:53:18.463Z,50.69
2019-05-11T06:55:49.981Z,49.80
2019-05-11T06:58:21.600Z,49.32
2019-05-11T07:00:54.238Z,49.33
2019-05-11T07:03:26.769Z,49.23
2019-05-11T07:05:58.145Z,51.09
2019-05-11T07:08:31.493Z,49.97
2019-05-11T07:11:02.596Z,51.11
2019-05-11T07:13:39.818Z,51.22
2019-05-11T07:16:12.219Z,51.92
2019-05-11T07:18:43.789Z,51.89
2019-05-11T07:21:16.344Z,51.67
2019-05-11T07:23:47.774Z,52.31
2019-05-11T07:26:19.254Z,52.32
2019-05-11T07:28:50.569Z,50.34
2019-05-11T07:31:23.634Z,51.31
2019-05-11T07:33:58.739Z,50.59
2019-05-11T07:36:32.570Z,51.03
2019-05-11T07:39:08.486Z,49.94
2019-05-11T07:41:41.401Z,49.34
2019-05-11T07:44:12.970Z,48.48
2019-05-11T07:46:44.590Z,47.61
2019-05-11T07:49:17.933Z,47.74
2019-05-11T07:51:49.317Z,47.25
2019-05-11T07:54:21.987Z,48.13
2019-05-11T07:56:53.507Z,48.17
2019-05-11T07:59:24.996Z,49.48
2019-05-11T08:01:58.332Z,48.83
2019-05-11T08:04:32.102Z,48.99
2019-05-11T08:07:03.674Z,48.92
2019-05-11T08:09:35.004Z,46.95
2019-05-11T08:12:08.751Z,47.20
2019-05-11T08:14:56.817Z,46.47
2019-05-11T08:17:14.718Z,46.70
2019-05-11T08:19:47.619Z,46.95
2019-05-11T08:22:22.665Z,44.63
2019-05-11T08:24:52.637Z,43.76
2019-05-11T08:27:28.549Z,44.71
2019-05-11T08:30:08.368Z,43.49
2019-05-11T08:32:41.924Z,42.30
2019-05-11T08:35:13.825Z,43.05
2019-05-11T08:37:47.720Z,43.44
2019-05-11T08:40:20.891Z,43.03
2019-05-11T08:42:53.936Z,44.20
2019-05-11T08:45:29.775Z,44.66
2019-05-11T08:48:02.916Z,43.47
2019-05-11T08:50:38.400Z,44.08
2019-05-11T08:53:17.705Z,44.32
2019-05-11T08:55:49.199Z,44.43
2019-05-11T08:58:23.662Z,44.32
2019-05-11T09:00:58.205Z,44.11
2019-05-11T09:03:31.985Z,45.31
2019-05-11T09:06:03.897Z,44.92
2019-05-11T09:08:38.835Z,45.06
2019-05-11T09:11:14.098Z,45.52
2019-05-11T09:13:48.846Z,44.15
2019-05-11T09:16:21.315Z,44.36
2019-05-11T09:18:52.626Z,44.59
2019-05-11T09:21:23.989Z,46.19
2019-05-11T09:23:57.859Z,46.25
2019-05-11T09:26:29.591Z,48.31
2019-05-11T09:29:11.354Z,47.32
2019-05-11T09:31:44.117Z,47.43
2019-05-11T09:34:18.085Z,47.85
2019-05-11T09:36:49.699Z,48.96
2019-05-11T09:39:21.120Z,49.86
2019-05-11T09:41:54.770Z,50.63
2019-05-11T09:44:29.578Z,50.95
2019-05-11T09:47:02.818Z,50.74
2019-05-11T09:49:46.399Z,51.61
2019-05-11T09:52:10.719Z,52.35
2019-05-11T09:54:42.245Z,52.54
2019-05-11T09:57:14.184Z,52.86
2019-05-11T09:59:50.167Z,52.58
2019-05-11T10:02:28.674Z,52.08
2019-05-11T10:05:00.653Z,53.08
2019-05-11T10:07:35.156Z,53.39
2019-05-11T10:10:09.164Z,53.20
2019-05-11T10:12:44.690Z,53.53
2019-05-11T10:15:18.600Z,53.98
2019-05-11T10:17:49.728Z,53.97
2019-05-11T10:20:22.442Z,52.21
2019-05-11T10:22:57.962Z,50.33
2019-05-11T10:25:29.736Z,51.57
2019-05-11T10:28:01.395Z,50.03
2019-05-11T10:30:32.812Z,50.32
2019-05-11T10:33:04.615Z,49.76
2019-05-11T10:35:38.577Z,50.27
2019-05-11T10:38:11.022Z,51.22
2019-05-11T10:40:48.047Z,52.85
2019-05-11T10:43:30.443Z,52.69
2019-05-11T10:46:16.088Z,53.83
2019-05-11T10:48:36.016Z,53.88
2019-05-11T10:51:08.250Z,54.84
2019-05-11T10:53:41.105Z,53.84
2019-05-11T10:56:17.879Z,53.63
2019-05-11T10:59:01.627Z,52.86
2019-05-11T11:01:38.030Z,52.71
2019-05-11T11:04:10.709Z,51.98
2019-05-11T11:06:43.681Z,52.06
2019-05-11T11:09:19.120Z,52.89
2019-05-11T11:11:52.531Z,53.17
2019-05-11T11:14:28.794Z,53.36
2019-05-11T11:17:04.963Z,51.42
2019-05-11T11:19:43.004Z,52.11
2019-05-11T11:22:33.268Z,52.83
2019-05-11T11:24:49.871Z,52.91
2019-05-11T11:27:22.911Z,52.62
2019-05-11T11:29:58.116Z,52.37
2019-05-11T11:32:29.088Z,52.94
2019-05-11T11:35:02.901Z,53.69
2019-05-11T11:37:38.476Z,53.50
2019-05-11T11:40:09.945Z,53.72
2019-05-11T11:42:43.603Z,55.64
2019-05-11T11:45:18.299Z,56.28
2019-05-11T11:47:50.747Z,56.25
2019-05-11T11:50:23.049Z,56.77
2019-05-11T11:52:54.712Z,57.45
2019-05-11T11:55:26.248Z,57.39
2019-05-11T11:57:59.111Z,56.92
2019-05-11T12:00:30.584Z,56.97
2019-05-11T12:03:02.071Z,55.88
2019-05-11T12:05:33.396Z,54.94
2019-05-11T12:08:04.749Z,54.96
2019-05-11T12:10:37.975Z,55.24
2019-05-11T12:13:10.520Z,56.74
2019-05-11T12:15:44.187Z,56.33
2019-05-11T12:18:15.967Z,57.18
2019-05-11T12:20:48.136Z,57.07
2019-05-11T12:23:19.775Z,57.62
2019-05-11T12:25:51.977Z,58.03
2019-05-11T12:28:25.107Z,58.83
2019-05-11T12:30:58.556Z,58.80
2019-05-11T12:33:34.877Z,60.44
2019-05-11T12:36:07.915Z,61.29
2019-05-11T12:38:41.657Z,62.04
2019-05-11T12:41:13.701Z,63.65
2019-05-11T12:43:45.099Z,64.02
2019-05-11T12:46:18.849Z,63.33
2019-05-11T12:48:50.301Z,61.91
2019-05-11T12:51:22.409Z,62.65
2019-05-11T12:54:04.308Z,63.04
2019-05-11T12:56:38.249Z,62.73
2019-05-11T12:59:14.460Z,62.46
2019-05-11T13:01:48.530Z,62.40
2019-05-11T13:04:20.896Z,64.39
2019-05-11T13:06:53.088Z,63.92
2019-05-11T13:09:30.072Z,63.89
2019-05-11T13:12:02.389Z,66.41
2019-05-11T13:14:38.176Z,66.68
2019-05-11T13:17:09.912Z,68.41
2019-05-11T13:19:48.040Z,69.93
2019-05-11T13:22:19.571Z,71.32
2019-05-11T13:24:52.210Z,71.80
2019-05-11T13:27:25.292Z,71.33
2019-05-11T13:29:59.201Z,70.87
2019-05-11T13:32:31.049Z,70.99
2019-05-11T13:35:09.179Z,70.25
2019-05-11T13:37:51.799Z,71.03
2019-05-11T13:40:27.720Z,72.44
2019-05-11T13:43:00.093Z,71.90
2019-05-11T13:45:32.789Z,72.72
2019-05-11T13:48:08.455Z,73.27
2019-05-11T13:50:40.465Z,73.93
2019-05-11T13:53:14.535Z,75.26
2019-05-11T13:55:48.263Z,75.94
2019-05-11T13:58:20.785Z,74.78
2019-05-11T14:00:52.227Z,74.56
2019-05-11T14:03:23.768Z,73.34
2019-05-11T14:05:58.166Z,73.31
2019-05-11T14:08:29.899Z,73.58
2019-05-11T14:11:03.235Z,73.97
2019-05-11T14:13:38.691Z,72.89
2019-05-11T14:16:14.895Z,72.72
2019-05-11T14:18:48.890Z,71.12
2019-05-11T14:21:20.791Z,69.91
2019-05-11T14:23:54.696Z,70.17
2019-05-11T14:26:28.017Z,68.66
2019-05-11T14:28:59.797Z,67.84
2019-05-11T14:31:31.997Z,68.12
2019-05-11T14:34:03.716Z,68.63
2019-05-11T14:36:35.163Z,71.96
2019-05-11T14:39:08.394Z,73.99
2019-05-11T14:41:41.924Z,74.39
2019-05-11T14:44:13.447Z,74.29
2019-05-11T14:46:44.960Z,73.54
2019-05-11T14:49:18.437Z,73.67
2019-05-11T14:51:52.279Z,73.20
2019-05-11T14:54:23.792Z,72.32
2019-05-11T14:56:58.416Z,72.38
2019-05-11T14:59:31.389Z,73.85
2019-05-11T15:02:05.146Z,71.41
2019-05-11T15:04:38.841Z,69.29
2019-05-11T15:07:10.610Z,65.00
2019-05-11T15:09:42.163Z,63.78
2019-05-11T15:12:13.699Z,63.62
2019-05-11T15:14:48.592Z,64.45
2019-05-11T15:17:20.083Z,65.98
2019-05-11T15:19:51.549Z,67.00
2019-05-11T15:22:23.043Z,67.35
2019-05-11T15:24:54.702Z,67.25
2019-05-11T15:27:26.059Z,67.66
2019-05-11T15:29:58.787Z,68.43
2019-05-11T15:32:30.391Z,69.45
2019-05-11T15:35:01.847Z,70.93
2019-05-11T15:37:33.307Z,72.23
2019-05-11T15:40:18.613Z,72.42
2019-05-11T15:42:53.133Z,73.75
2019-05-11T15:45:23.762Z,73.43
2019-05-11T15:47:55.190Z,73.34
2019-05-11T15:50:28.864Z,73.87
2019-05-11T15:53:00.043Z,74.39
2019-05-11T15:55:31.657Z,74.42
2019-05-11T15:58:04.452Z,74.58
2019-05-11T16:00:39.705Z,75.26
2019-05-11T16:03:09.339Z,75.43
2019-05-11T16:05:40.852Z,75.27
2019-05-11T16:08:13.381Z,75.17
2019-05-11T16:10:44.997Z,74.84
2019-05-11T16:13:18.115Z,74.77
2019-05-11T16:15:51.275Z,75.45
2019-05-11T16:18:22.852Z,75.80
2019-05-11T16:20:54.369Z,76.58
2019-05-11T16:23:28.232Z,77.08
2019-05-11T16:25:58.974Z,77.40
2019-05-11T16:28:30.997Z,78.01
2019-05-11T16:31:02.584Z,78.12
2019-05-11T16:33:34.049Z,78.14
2019-05-11T16:36:05.446Z,78.77
2019-05-11T16:38:38.010Z,79.21
2019-05-11T16:41:09.802Z,79.81
2019-05-11T16:43:43.112Z,80.45
2019-05-11T16:46:17.760Z,80.67
2019-05-11T16:48:48.953Z,80.99
2019-05-11T16:51:20.346Z,81.59
2019-05-11T16:53:51.828Z,81.71
2019-05-11T16:56:23.485Z,82.08
2019-05-11T16:58:55.302Z,82.28
2019-05-11T17:01:26.893Z,83.00
2019-05-11T17:04:00.807Z,83.36
2019-05-11T17:06:32.577Z,83.89
2019-05-11T17:09:08.598Z,84.30
2019-05-11T17:11:40.550Z,84.68
2019-05-11T17:14:12.552Z,84.98
2019-05-11T17:16:49.040Z,85.29
2019-05-11T17:19:20.733Z,85.19
2019-05-11T17:21:52.499Z,85.51
2019-05-11T17:24:24.398Z,85.73
2019-05-11T17:26:58.323Z,86.05
2019-05-11T17:29:29.925Z,86.58
2019-05-11T17:32:01.695Z,86.80
2019-05-11T17:34:33.269Z,86.93
2019-05-11T17:37:04.898Z,87.16
2019-05-11T17:39:38.559Z,87.49
2019-05-11T17:42:10.353Z,87.70
2019-05-11T17:44:43.690Z,87.86
2019-05-11T17:47:17.409Z,87.54
2019-05-11T17:49:57.361Z,87.27
2019-05-11T17:52:22.109Z,87.06
2019-05-11T17:54:55.157Z,86.80
2019-05-11T17:57:27.833Z,86.70
2019-05-11T18:00:02.150Z,86.69
2019-05-11T18:02:32.717Z,86.65
2019-05-11T18:05:05.316Z,86.95
2019-05-11T18:07:38.515Z,87.18
2019-05-11T18:10:10.374Z,87.30
2019-05-11T18:12:42.323Z,87.56
2019-05-11T18:15:14.051Z,87.66
2019-05-11T18:17:48.192Z,87.48
2019-05-11T18:20:21.968Z,87.93
2019-05-11T18:22:52.438Z,87.79
2019-05-11T18:25:23.947Z,88.37
2019-05-11T18:27:55.402Z,88.07
2019-05-11T18:30:29.120Z,88.47
2019-05-11T18:33:00.065Z,88.60
2019-05-11T18:35:31.979Z,88.78
2019-05-11T18:38:04.484Z,88.92
2019-05-11T18:40:38.191Z,88.42
2019-05-11T18:43:10.215Z,88.45
2019-05-11T18:45:43.340Z,88.77
2019-05-11T18:48:18.350Z,88.97
2019-05-11T18:50:49.311Z,89.10
2019-05-11T18:53:22.117Z,89.34
2019-05-11T18:55:55.492Z,89.53
2019-05-11T18:58:27.851Z,90.07
2019-05-11T19:00:59.931Z,90.41
2019-05-11T19:03:32.179Z,90.66
2019-05-11T19:06:04.125Z,90.61
2019-05-11T19:08:38.287Z,91.09
2019-05-11T19:11:11.135Z,91.03
2019-05-11T19:13:42.777Z,91.19
2019-05-11T19:16:14.533Z,91.18
2019-05-11T19:18:47.949Z,91.65
2019-05-11T19:21:19.190Z,91.81
2019-05-11T19:23:52.004Z,91.94
2019-05-11T19:26:23.742Z,91.70
2019-05-11T19:28:57.826Z,91.74
2019-05-11T19:31:28.838Z,91.88
2019-05-11T19:34:00.506Z,92.19
2019-05-11T19:36:32.101Z,91.47
2019-05-11T19:39:05.276Z,91.36
2019-05-11T19:41:36.982Z,91.71
2019-05-11T19:44:08.815Z,92.02
2019-05-11T19:46:42.314Z,92.55
2019-05-11T19:49:16.107Z,93.17
2019-05-11T19:51:48.799Z,93.46
2019-05-11T19:54:20.392Z,93.56
2019-05-11T19:56:52.536Z,93.93
2019-05-11T19:59:25.025Z,94.26
2019-05-11T20:01:59.801Z,94.29
2019-05-11T20:04:30.728Z,94.41
2019-05-11T20:07:02.724Z,94.40
2019-05-11T20:09:34.506Z,94.37
2019-05-11T20:12:06.341Z,94.31
2019-05-11T20:14:38.125Z,94.24
2019-05-11T20:17:09.687Z,93.97
2019-05-11T20:19:41.566Z,93.88
2019-05-11T20:22:16.682Z,93.70
2019-05-11T20:24:49.868Z,93.60
2019-05-11T20:27:21.403Z,93.27
2019-05-11T20:29:55.006Z,93.12
2019-05-11T20:32:28.418Z,92.89
2019-05-11T20:34:59.973Z,92.85
2019-05-11T20:37:32.342Z,92.81
2019-05-11T20:40:05.961Z,92.90
2019-05-11T20:42:38.244Z,92.98
2019-05-11T20:45:12.036Z,93.04
2019-05-11T20:47:48.449Z,93.17
2019-05-11T20:50:21.900Z,93.44
2019-05-11T20:52:54.757Z,93.38
2019-05-11T20:55:28.401Z,93.42
2019-05-11T20:57:59.758Z,93.96
2019-05-11T21:00:31.278Z,94.07
2019-05-11T21:03:03.008Z,93.93
2019-05-11T21:05:34.802Z,93.57
2019-05-11T21:08:08.657Z,93.57
2019-05-11T21:10:42.057Z,93.60
2019-05-11T21:13:14.872Z,93.67
2019-05-11T21:15:47.852Z,93.54
2019-05-11T21:18:20.538Z,93.68
2019-05-11T21:20:52.514Z,93.87
2019-05-11T21:23:24.746Z,93.92
2019-05-11T21:25:56.569Z,93.77
2019-05-11T21:28:30.675Z,93.51
2019-05-11T21:31:07.781Z,93.72
2019-05-11T21:33:38.952Z,93.96
2019-05-11T21:36:11.687Z,94.05
2019-05-11T21:38:44.473Z,94.24
2019-05-11T21:41:17.435Z,94.29
2019-05-11T21:43:50.140Z,94.56
2019-05-11T21:46:22.579Z,94.79
2019-05-11T21:48:58.347Z,95.10
2019-05-11T21:51:30.607Z,95.38
2019-05-11T21:54:05.023Z,95.76
2019-05-11T21:56:40.793Z,95.98
2019-05-11T21:59:11.016Z,96.09
2019-05-11T22:01:43.149Z,96.28
2019-05-11T22:04:15.275Z,96.29
2019-05-11T22:06:48.371Z,96.56
2019-05-11T22:09:20.760Z,96.87
2019-05-11T22:11:55.823Z,97.18
2019-05-11T22:14:29.892Z,97.19
2019-05-11T22:17:02.593Z,97.30
2019-05-11T22:19:34.233Z,97.45
2019-05-11T22:22:20.739Z,96.93
2019-05-11T22:24:39.102Z,95.92
2019-05-11T22:27:10.530Z,95.54
2019-05-11T22:29:42.174Z,95.44
2019-05-11T22:32:13.997Z,95.70
2019-05-11T22:34:47.856Z,96.57
2019-05-11T22:37:19.899Z,96.95
2019-05-11T22:39:51.564Z,96.81
2019-05-11T22:42:23.054Z,96.84
2019-05-11T22:44:54.502Z,96.71
2019-05-11T22:47:28.204Z,97.02
2019-05-11T22:50:07.804Z,97.33
2019-05-11T22:52:40.274Z,97.45
2019-05-11T22:55:12.426Z,97.61
2019-05-11T22:57:44.113Z,96.91
2019-05-11T23:00:18.329Z,96.96
2019-05-11T23:02:49.186Z,96.99
2019-05-11T23:05:20.830Z,97.52
2019-05-11T23:07:52.560Z,97.94
2019-05-11T23:10:24.180Z,98.47
2019-05-11T23:12:55.770Z,99.21
2019-05-11T23:15:27.376Z,99.60
2019-05-11T23:17:59.967Z,99.48
2019-05-11T23:20:31.689Z,99.34
2019-05-11T23:23:03.345Z,99.53
2019-05-11T23:25:34.954Z,99.97
2019-05-11T23:28:06.559Z,100.00
2019-05-11T23:30:38.957Z,100.00
2019-05-11T23:33:11.090Z,100.00
2019-05-11T23:35:42.671Z,100.00
2019-05-11T23:38:14.418Z,98.58
2019-05-11T23:40:48.098Z,98.35
2019-05-11T23:43:19.408Z,98.62
2019-05-11T23:45:51.149Z,99.28
2019-05-11T23:48:22.756Z,99.58
2019-05-11T23:50:58.009Z,99.94
2019-05-11T23:53:29.175Z,100.00
2019-05-11T23:56:00.828Z,99.41
2019-05-11T23:58:32.281Z,98.70
